Terminal Aerodrome Forecast
Issued by NWS Wilmington, OH

Current Version | Previous Version | Graphics & Text | Print | Product List | Glossary On
Versions: 1 2 3 4 5 6 7 8 9 10 11 12 13 14 15 16 17 18 19 20 21 22
000
FTUS41 KILN 030710 AAA
TAFDAY
TAF AMD
KDAY 030710Z 0307/0406 21010KT P6SM BKN100
     FM030800 22012KT P6SM VCTS BKN040CB
      TEMPO 0308/0310 33015G25KT 4SM -TSRA BKN025CB
     FM031300 24012G18KT P6SM BKN050
     FM031800 27014G24KT P6SM VCTS BKN050CB
     FM032200 29012G18KT P6SM BKN050
     FM040100 32008KT P6SM SCT050=

USA.gov is the U.S. government's official web portal to all federal, state and local government web resources and services.